Archival Weather

Chicago O'Hare International

Chicago, Illinois (KORD)

Report from: Thursday, May 11, 2023 3:51 PM CDT
Current time: Sunday, February 25, 2024 2:44 PM CST

Current weather – Weather history – Daily summaries
Weather forecast

Temperature28.9°C (84.0°F)
Heat index27.5°C (81.6°F)
Dew point4.4°C (39.9°F)
Winds 9 kts (4.6 m/s, 10.4 mph) Southeast (130°)
Visibility10 mi. (16.1 km)
Clouds Few clouds 25,000 ft. (7,620 m)
Ceiling: Broken clouds 35,000 ft. (10,668 m)
Altimeter30.01 in.Hg (1016 mB)
Relative humidity21 %
Density altitude1,635 ft. (498 m)
Sea-level pressure101.6 kPa (1016 mB, 30.00 in.Hg)
Remarks Automated weather observing station with precipitation discriminator
Pressure falling more quickly
Flight conditions Visual Meteorological Conditions
Raw dataKORD 112051Z 13009KT 10SM FEW250 BKN350 29/04 A3001 RMK AO2 SLP159 T02890044 58019
An error has occurred. This application may no longer respond until reloaded. Reload 🗙